createdAt,value
2023-01-07T00:01:57.253Z,-19.21
2023-01-07T00:07:00.002Z,-19.22
2023-01-07T00:12:02.514Z,-19.28
2023-01-07T00:17:05.051Z,-19.25
2023-01-07T00:22:07.805Z,-19.17
2023-01-07T00:27:10.526Z,-19.18
2023-01-07T00:32:13.286Z,-19.18
2023-01-07T00:37:38.510Z,-19.21
2023-01-07T00:42:57.280Z,-19.26
2023-01-07T00:48:01.000Z,-19.21
2023-01-07T00:53:04.366Z,-19.16
2023-01-07T00:58:07.277Z,-19.14
2023-01-07T01:03:12.212Z,-19.12
2023-01-07T01:08:14.993Z,-19.10
2023-01-07T01:13:18.592Z,-18.93
2023-01-07T01:18:21.281Z,-18.59
2023-01-07T01:23:24.217Z,-18.36
2023-01-07T01:28:26.889Z,-18.23
2023-01-07T01:33:29.769Z,-18.17
2023-01-07T01:38:32.725Z,-17.96
2023-01-07T01:43:37.193Z,-17.88
2023-01-07T01:48:45.991Z,-17.89
2023-01-07T01:53:48.807Z,-17.78
2023-01-07T01:58:59.101Z,-17.70
2023-01-07T02:04:12.220Z,-17.86
2023-01-07T02:09:15.021Z,-18.01
2023-01-07T02:14:27.316Z,-18.02
2023-01-07T02:19:51.107Z,-17.98
2023-01-07T02:25:34.376Z,-17.86
2023-01-07T02:30:43.100Z,-17.77
2023-01-07T02:36:08.851Z,-17.75
2023-01-07T02:41:43.686Z,-17.82
2023-01-07T02:47:09.305Z,-17.77
2023-01-07T02:52:26.913Z,-17.83
2023-01-07T02:57:51.619Z,-17.72
2023-01-07T03:03:26.744Z,-17.68
2023-01-07T03:08:40.180Z,-17.65
2023-01-07T03:13:55.706Z,-17.77
2023-01-07T03:19:04.783Z,-17.56
2023-01-07T03:24:08.530Z,-17.54
2023-01-07T03:29:12.744Z,-17.47
2023-01-07T03:34:17.557Z,-17.42
2023-01-07T03:39:26.582Z,-17.31
2023-01-07T03:44:29.978Z,-17.29
2023-01-07T03:49:34.586Z,-17.24
2023-01-07T03:54:38.035Z,-17.14
2023-01-07T03:59:40.965Z,-17.04
2023-01-07T04:04:43.889Z,-16.97
2023-01-07T04:09:50.858Z,-16.89
2023-01-07T04:14:54.151Z,-16.88
2023-01-07T04:19:57.091Z,-16.89
2023-01-07T04:25:00.418Z,-16.85
2023-01-07T04:30:03.437Z,-16.87
2023-01-07T04:35:09.836Z,-16.92
2023-01-07T04:40:12.888Z,-16.65
2023-01-07T04:45:15.731Z,-16.41
2023-01-07T04:50:18.634Z,-16.35
2023-01-07T04:55:21.583Z,-16.08
2023-01-07T05:00:24.512Z,-15.97
2023-01-07T05:05:29.424Z,-15.62
2023-01-07T05:10:33.430Z,-15.35
2023-01-07T05:15:37.264Z,-15.10
2023-01-07T05:20:40.472Z,-14.93
2023-01-07T05:25:43.580Z,-14.95
2023-01-07T05:30:47.684Z,-15.01
2023-01-07T05:35:50.513Z,-14.99
2023-01-07T05:40:54.351Z,-14.94
2023-01-07T05:46:01.245Z,-15.18
2023-01-07T05:51:04.103Z,-15.06
2023-01-07T05:56:06.987Z,-15.05
2023-01-07T06:01:09.806Z,-15.11
2023-01-07T06:06:12.557Z,-15.12
2023-01-07T06:11:15.977Z,-14.97
2023-01-07T06:16:18.697Z,-15.07
2023-01-07T06:21:21.949Z,-14.85
2023-01-07T06:26:24.804Z,-14.74
2023-01-07T06:31:27.588Z,-14.43
2023-01-07T06:36:30.421Z,-14.08
2023-01-07T06:41:33.250Z,-13.76
2023-01-07T06:46:36.113Z,-13.63
2023-01-07T06:51:38.716Z,-13.78
2023-01-07T06:56:41.381Z,-13.69
2023-01-07T07:01:46.994Z,-13.69
2023-01-07T07:06:49.744Z,-13.57
2023-01-07T07:11:52.441Z,-13.33
2023-01-07T07:16:55.113Z,-13.13
2023-01-07T07:21:57.839Z,-13.03
2023-01-07T07:27:00.639Z,-12.86
2023-01-07T07:32:03.657Z,-12.66
2023-01-07T07:37:06.480Z,-12.55
2023-01-07T07:42:09.408Z,-12.35
2023-01-07T07:47:12.805Z,-12.34
2023-01-07T07:52:15.506Z,-12.21
2023-01-07T07:57:18.205Z,-12.08
2023-01-07T08:02:21.088Z,-12.14
2023-01-07T08:07:32.031Z,-11.89
2023-01-07T08:12:39.245Z,-11.88
2023-01-07T08:17:42.053Z,-11.85
2023-01-07T08:22:44.821Z,-11.84
2023-01-07T08:27:47.432Z,-11.85
2023-01-07T08:32:50.203Z,-11.90
2023-01-07T08:37:52.928Z,-11.87
2023-01-07T08:43:01.750Z,-11.76
2023-01-07T08:48:05.264Z,-11.64
2023-01-07T08:53:07.921Z,-11.59
2023-01-07T08:58:10.574Z,-11.60
2023-01-07T09:03:13.356Z,-11.47
2023-01-07T09:08:16.022Z,-11.30
2023-01-07T09:13:18.752Z,-11.18
2023-01-07T09:18:21.922Z,-11.19
2023-01-07T09:23:24.641Z,-11.10
2023-01-07T09:28:27.307Z,-11.05
2023-01-07T09:33:30.058Z,-11.37
2023-01-07T09:38:33.425Z,-11.01
2023-01-07T09:43:59.836Z,-11.01
2023-01-07T09:49:04.439Z,-10.98
2023-01-07T09:54:41.044Z,-11.03
2023-01-07T09:59:46.961Z,-11.07
2023-01-07T10:04:52.687Z,-10.98
2023-01-07T10:10:12.010Z,-11.02
2023-01-07T10:15:43.209Z,-10.86
2023-01-07T10:21:09.116Z,-10.79
2023-01-07T10:26:22.607Z,-10.76
2023-01-07T10:31:26.737Z,-10.69
2023-01-07T10:36:32.072Z,-10.66
2023-01-07T10:41:41.657Z,-10.73
2023-01-07T10:47:02.650Z,-10.69
2023-01-07T10:52:27.259Z,-10.48
2023-01-07T10:57:34.041Z,-10.56
2023-01-07T11:02:39.559Z,-10.41
2023-01-07T11:07:48.650Z,-10.29
2023-01-07T11:12:57.936Z,-10.27
2023-01-07T11:18:03.866Z,-10.19
2023-01-07T11:23:25.146Z,-10.14
2023-01-07T11:28:30.568Z,-10.14
2023-01-07T11:34:02.009Z,-10.03
2023-01-07T11:39:17.120Z,-9.97
2023-01-07T11:44:20.039Z,-9.92
2023-01-07T11:49:30.911Z,-9.85
2023-01-07T11:54:33.580Z,-9.88
2023-01-07T11:59:36.408Z,-9.83
2023-01-07T12:04:40.666Z,-9.67
2023-01-07T12:09:44.014Z,-9.69
2023-01-07T12:14:47.917Z,-9.63
2023-01-07T12:20:27.523Z,-9.55
2023-01-07T12:25:48.573Z,-9.47
2023-01-07T12:31:10.230Z,-9.32
2023-01-07T12:36:39.487Z,-9.22
2023-01-07T12:41:45.340Z,-9.10
2023-01-07T12:47:31.355Z,-9.01
2023-01-07T12:52:32.017Z,-8.96
2023-01-07T12:57:39.669Z,-8.94
2023-01-07T13:03:01.071Z,-8.83
2023-01-07T13:08:28.933Z,-8.78
2023-01-07T13:13:35.188Z,-8.89
2023-01-07T13:18:38.045Z,-8.63
2023-01-07T13:24:19.043Z,-8.51
2023-01-07T13:29:31.517Z,-8.52
2023-01-07T13:34:38.511Z,-8.42
2023-01-07T13:40:02.695Z,-8.34
2023-01-07T13:45:13.871Z,-8.44
2023-01-07T13:50:24.159Z,-8.27
2023-01-07T13:55:37.393Z,-8.26
2023-01-07T14:01:02.671Z,-8.15
2023-01-07T14:06:20.902Z,-8.10
2023-01-07T14:11:55.515Z,-8.08
2023-01-07T14:17:32.704Z,-8.16
2023-01-07T14:22:50.284Z,-8.01
2023-01-07T14:28:20.923Z,-7.99
2023-01-07T14:33:25.448Z,-7.91
2023-01-07T14:38:34.059Z,-7.90
2023-01-07T14:43:45.487Z,-7.83
2023-01-07T14:49:03.578Z,-7.74
2023-01-07T14:54:28.690Z,-7.68
2023-01-07T14:59:52.791Z,-7.63
2023-01-07T15:05:14.120Z,-7.59
2023-01-07T15:10:42.057Z,-7.59
2023-01-07T15:16:02.656Z,-7.58
2023-01-07T15:21:08.580Z,-7.63
2023-01-07T15:26:21.600Z,-7.78
2023-01-07T15:31:40.583Z,-7.67
2023-01-07T15:36:48.999Z,-7.74
2023-01-07T15:41:55.857Z,-7.82
2023-01-07T15:46:58.657Z,-7.85
2023-01-07T15:52:02.383Z,-7.80
2023-01-07T15:57:10.824Z,-7.81
2023-01-07T16:02:42.877Z,-7.81
2023-01-07T16:07:48.562Z,-7.75
2023-01-07T16:12:56.735Z,-7.80
2023-01-07T16:18:04.948Z,-7.83
2023-01-07T16:23:10.520Z,-7.75
2023-01-07T16:28:30.388Z,-7.70
2023-01-07T16:33:34.493Z,-7.66
2023-01-07T16:38:38.094Z,-7.60
2023-01-07T16:43:40.922Z,-7.58
2023-01-07T16:48:44.055Z,-7.52
2023-01-07T16:53:46.785Z,-7.48
2023-01-07T16:58:53.195Z,-7.39
2023-01-07T17:04:02.310Z,-7.31
2023-01-07T17:09:05.369Z,-7.31
2023-01-07T17:14:44.420Z,-7.21
2023-01-07T17:19:54.756Z,-7.23
2023-01-07T17:25:16.959Z,-7.27
2023-01-07T17:30:21.621Z,-7.16
2023-01-07T17:35:24.789Z,-7.11
2023-01-07T17:40:27.520Z,-7.08
2023-01-07T17:45:30.460Z,-7.03
2023-01-07T17:50:37.148Z,-6.94
2023-01-07T17:55:39.848Z,-6.88
2023-01-07T18:00:42.941Z,-6.79
2023-01-07T18:05:45.785Z,-6.71
2023-01-07T18:11:08.157Z,-6.63
2023-01-07T18:16:12.910Z,-6.50
2023-01-07T18:21:15.773Z,-6.44
2023-01-07T18:26:19.408Z,-6.43
2023-01-07T18:31:22.208Z,-6.27
2023-01-07T18:36:24.973Z,-6.41
2023-01-07T18:41:27.733Z,-6.23
2023-01-07T18:46:30.484Z,-6.24
2023-01-07T18:51:33.187Z,-6.19
2023-01-07T18:56:35.929Z,-6.03
2023-01-07T19:01:38.783Z,-5.99
2023-01-07T19:06:41.559Z,-5.99
2023-01-07T19:11:44.212Z,-5.89
2023-01-07T19:16:46.983Z,-5.84
2023-01-07T19:21:50.795Z,-5.84
2023-01-07T19:26:53.456Z,-5.82
2023-01-07T19:31:56.193Z,-5.75
2023-01-07T19:36:58.880Z,-5.70
2023-01-07T19:42:01.738Z,-5.68
2023-01-07T19:47:04.527Z,-5.65
2023-01-07T19:52:07.198Z,-5.64
2023-01-07T19:57:10.104Z,-5.58
2023-01-07T20:02:14.730Z,-5.59
2023-01-07T20:07:17.315Z,-5.51
2023-01-07T20:12:20.110Z,-5.46
2023-01-07T20:17:22.823Z,-5.39
2023-01-07T20:22:25.509Z,-5.33
2023-01-07T20:27:28.222Z,-5.33
2023-01-07T20:32:30.869Z,-5.26
2023-01-07T20:37:35.048Z,-5.21
2023-01-07T20:42:37.894Z,-5.19
2023-01-07T20:47:40.734Z,-5.13
2023-01-07T20:52:43.401Z,-5.05
2023-01-07T20:57:46.098Z,-5.05
2023-01-07T21:02:48.861Z,-5.04
2023-01-07T21:07:51.888Z,-5.03
2023-01-07T21:12:54.617Z,-5.08
2023-01-07T21:17:57.350Z,-5.06
2023-01-07T21:23:00.126Z,-4.98
2023-01-07T21:28:03.582Z,-4.98
2023-01-07T21:33:06.393Z,-4.94
2023-01-07T21:38:09.035Z,-4.95
2023-01-07T21:43:11.833Z,-4.89
2023-01-07T21:48:14.705Z,-4.84
2023-01-07T21:53:18.952Z,-4.83
2023-01-07T21:58:21.701Z,-4.75
2023-01-07T22:03:24.540Z,-4.79
2023-01-07T22:08:27.514Z,-4.76
2023-01-07T22:13:30.248Z,-4.69
2023-01-07T22:18:32.907Z,-4.66
2023-01-07T22:23:37.371Z,-4.78
2023-01-07T22:28:40.889Z,-4.65
2023-01-07T22:33:43.486Z,-4.56
2023-01-07T22:38:46.204Z,-4.59
2023-01-07T22:43:49.180Z,-4.59
2023-01-07T22:48:52.148Z,-4.55
2023-01-07T22:53:56.081Z,-4.47
2023-01-07T22:58:58.809Z,-4.48
2023-01-07T23:04:01.716Z,-4.49
2023-01-07T23:09:05.153Z,-4.50
2023-01-07T23:14:08.160Z,-4.50
2023-01-07T23:19:10.888Z,-4.47
2023-01-07T23:24:14.422Z,-4.45
2023-01-07T23:29:18.147Z,-4.43
2023-01-07T23:34:20.914Z,-4.40
2023-01-07T23:39:23.548Z,-4.34
2023-01-07T23:44:26.217Z,-4.32
2023-01-07T23:49:28.959Z,-4.32
2023-01-07T23:54:31.551Z,-4.25
2023-01-07T23:59:34.322Z,-4.30
